Time;durP1;ratioP1;P1;durP2;ratioP2;P2;SDS_P1;SDS_P2;PMS_P1;PMS_P2;Temp;Humidity;BMP_temperature;BMP_pressure;BME280_temperature;BME280_humidity;BME280_pressure;Samples;Min_cycle;Max_cycle;Signal;HPM_P1;HPM_P2
2022/04/05 00:02:21;;;;;;;;;;;;;;;4.31;77.67;98760.90;1762884;80;20228;-68
2022/04/05 00:04:46;;;;;;;;;;;;;;;4.36;77.65;98757.23;1763067;81;20176;-68
2022/04/05 00:07:12;;;;;;;;;;;;;;;4.39;77.61;98751.64;1763020;80;20810;-68
2022/04/05 00:09:38;;;;;;;;;;;;;;;4.43;77.58;98755.56;1763147;81;20625;-69
2022/04/05 00:12:04;;;;;;;;;;;;;;;4.45;77.54;98750.95;1762908;81;20255;-68
2022/04/05 00:14:30;;;;;;;;;;;;;;;4.48;77.50;98754.56;1763134;81;20181;-68
2022/04/05 00:16:56;;;;;;;;;;;;;;;4.49;77.42;98752.25;1762876;81;20165;-68
2022/04/05 00:19:22;;;;;;;;;;;;;;;4.51;77.38;98742.33;1762610;81;20220;-68
2022/04/05 00:21:49;;;;;;;;;;;;;;;4.52;77.32;98741.35;1762758;81;21180;-68
2022/04/05 00:24:16;;;;;;;;;;;;;;;4.54;77.27;98734.06;1762860;80;20153;-68
2022/04/05 00:26:41;;;;;;;;;;;;;;;4.57;77.22;98740.02;1763055;81;20177;-69
2022/04/05 00:29:07;;;;;;;;;;;;;;;4.61;77.20;98730.76;1763004;81;20161;-68
2022/04/05 00:31:34;;;;;;;;;;;;;;;4.62;77.14;98730.57;1762899;81;20208;-69
2022/04/05 00:33:59;;;;;;;;;;;;;;;4.65;77.10;98735.99;1762898;81;22143;-68
2022/04/05 00:36:25;;;;;;;;;;;;;;;4.67;77.04;98725.61;1763236;81;20632;-68
2022/04/05 00:38:51;;;;;;;;;;;;;;;4.69;76.99;98730.20;1762986;81;20307;-68
2022/04/05 00:41:17;;;;;;;;;;;;;;;4.73;76.93;98726.72;1762701;81;20172;-68
2022/04/05 00:43:43;;;;;;;;;;;;;;;4.77;76.86;98730.17;1763096;81;20165;-69
2022/04/05 00:46:08;;;;;;;;;;;;;;;4.79;76.79;98726.02;1763018;81;21779;-68
2022/04/05 00:48:44;;;;;;;;;;;;;;;4.79;76.74;98715.45;1763029;81;20223;-69
2022/04/05 00:51:10;;;;;;;;;;;;;;;4.79;76.69;98724.69;1762878;80;20182;-69
2022/04/05 00:53:36;;;;;;;;;;;;;;;4.83;76.63;98731.27;1762698;81;20680;-68
2022/04/05 00:56:02;;;;;;;;;;;;;;;4.85;76.58;98721.37;1762697;81;20181;-68
2022/04/05 00:58:27;;;;;;;;;;;;;;;4.87;76.53;98704.84;1763260;81;21160;-68
2022/04/05 01:00:54;;;;;;;;;;;;;;;4.90;76.47;98717.70;1762916;81;20240;-69
2022/04/05 01:03:20;;;;;;;;;;;;;;;4.90;76.42;98716.38;1762853;81;20173;-68
2022/04/05 01:05:46;;;;;;;;;;;;;;;4.90;76.37;98706.64;1763139;80;20172;-69
2022/04/05 01:08:12;;;;;;;;;;;;;;;4.91;76.34;98713.58;1762999;81;20158;-69
2022/04/05 01:10:38;;;;;;;;;;;;;;;4.93;76.30;98723.45;1762989;81;21128;-69
2022/04/05 01:13:04;;;;;;;;;;;;;;;4.93;76.24;98719.98;1762938;81;20807;-68
2022/04/05 01:15:30;;;;;;;;;;;;;;;4.92;76.24;98721.00;1762697;81;20231;-68
2022/04/05 01:17:55;;;;;;;;;;;;;;;4.92;76.23;98734.20;1762925;81;20173;-69
2022/04/05 01:20:23;;;;;;;;;;;;;;;4.91;76.21;98729.91;1762872;81;20157;-69
2022/04/05 01:22:49;;;;;;;;;;;;;;;4.89;76.26;98725.31;1763102;81;21017;-69
2022/04/05 01:25:16;;;;;;;;;;;;;;;4.86;76.28;98735.71;1762994;81;20170;-69
2022/04/05 01:27:42;;;;;;;;;;;;;;;4.85;76.32;98724.84;1763045;81;20435;-69
2022/04/05 01:30:09;;;;;;;;;;;;;;;4.82;76.35;98723.05;1762889;80;20784;-69
2022/04/05 01:32:35;;;;;;;;;;;;;;;4.80;76.40;98718.42;1763028;81;20162;-69
2022/04/05 01:35:01;;;;;;;;;;;;;;;4.75;76.44;98718.94;1737086;81;21943;-68
2022/04/05 01:37:27;;;;;;;;;;;;;;;4.74;76.49;98717.81;1762917;80;20200;-68
2022/04/05 01:39:53;;;;;;;;;;;;;;;4.75;76.52;98719.46;1763066;81;20204;-69
2022/04/05 01:42:18;;;;;;;;;;;;;;;4.75;76.55;98720.78;1762897;81;20144;-69
2022/04/05 01:44:45;;;;;;;;;;;;;;;4.78;76.60;98713.83;1763043;81;20290;-69
2022/04/05 01:47:13;;;;;;;;;;;;;;;4.81;76.64;98717.44;1763001;81;21125;-69
2022/04/05 01:49:40;;;;;;;;;;;;;;;4.82;76.63;98709.84;1762237;81;20173;-69
2022/04/05 01:52:06;;;;;;;;;;;;;;;4.85;76.66;98706.85;1763090;81;20185;-69
2022/04/05 01:54:32;;;;;;;;;;;;;;;4.90;76.64;98705.31;1762749;81;20185;-69
2022/04/05 01:56:58;;;;;;;;;;;;;;;4.93;76.66;98714.70;1763248;81;20169;-69
2022/04/05 01:59:28;;;;;;;;;;;;;;;4.97;76.64;98709.39;1762818;81;21866;-69
2022/04/05 02:01:54;;;;;;;;;;;;;;;4.99;76.65;98720.63;1763074;81;20142;-69
2022/04/05 02:04:20;;;;;;;;;;;;;;;5.03;76.63;98724.56;1762864;81;20231;-69
2022/04/05 02:06:46;;;;;;;;;;;;;;;5.04;76.61;98716.94;1763085;81;20208;-69
2022/04/05 02:09:14;;;;;;;;;;;;;;;5.06;76.58;98694.32;1763119;81;20154;-69
2022/04/05 02:11:43;;;;;;;;;;;;;;;5.08;76.54;98724.84;1763249;81;20776;-69
2022/04/05 02:14:11;;;;;;;;;;;;;;;5.14;76.54;98735.22;1763199;81;20153;-69
2022/04/05 02:16:36;;;;;;;;;;;;;;;5.17;76.48;98730.41;1763118;81;20150;-69
2022/04/05 02:19:02;;;;;;;;;;;;;;;5.17;76.44;98723.80;1762938;81;20161;-69
2022/04/05 02:21:28;;;;;;;;;;;;;;;5.20;76.43;98716.84;1763048;81;20184;-69
2022/04/05 02:23:54;;;;;;;;;;;;;;;5.21;76.38;98732.17;1763047;81;20892;-69
2022/04/05 02:26:20;;;;;;;;;;;;;;;5.24;76.34;98728.67;1763046;81;20239;-68
2022/04/05 02:28:47;;;;;;;;;;;;;;;5.25;76.29;98725.53;1763123;80;20188;-69
2022/04/05 02:31:13;;;;;;;;;;;;;;;5.26;76.26;98722.73;1762855;81;20154;-69
2022/04/05 02:33:39;;;;;;;;;;;;;;;5.25;76.21;98711.83;1763010;81;20164;-69
2022/04/05 02:36:05;;;;;;;;;;;;;;;5.24;76.15;98710.17;1763318;81;21285;-69
2022/04/05 02:38:30;;;;;;;;;;;;;;;5.26;76.11;98724.05;1763133;81;20792;-69
2022/04/05 02:41:01;;;;;;;;;;;;;;;5.26;76.08;98721.41;1763227;81;20274;-69
2022/04/05 02:43:27;;;;;;;;;;;;;;;5.26;76.05;98724.55;1763187;81;20497;-69
2022/04/05 02:45:58;;;;;;;;;;;;;;;5.24;76.02;98726.03;1762934;81;20193;-69
2022/04/05 02:48:21;;;;;;;;;;;;;;;5.24;76.02;98726.03;1761953;81;21151;-69
2022/04/05 02:50:47;;;;;;;;;;;;;;;5.23;76.02;98730.19;1763249;81;20462;-69
2022/04/05 02:53:13;;;;;;;;;;;;;;;5.22;76.00;98725.89;1760487;81;20224;-69
2022/04/05 02:55:39;;;;;;;;;;;;;;;5.20;76.06;98719.48;1755901;80;20227;-69
2022/04/05 02:58:05;;;;;;;;;;;;;;;5.20;76.05;98724.77;1756238;81;20863;-69
2022/04/05 03:00:31;;;;;;;;;;;;;;;5.21;76.07;98726.88;1756023;81;21229;-69
2022/04/05 03:02:57;;;;;;;;;;;;;;;5.20;76.10;98733.19;1756009;81;20295;-68
2022/04/05 03:05:24;;;;;;;;;;;;;;;5.19;76.14;98732.36;1756068;81;20275;-69
2022/04/05 03:07:50;;;;;;;;;;;;;;;5.18;76.17;98739.12;1756110;80;20154;-69
2022/04/05 03:10:15;;;;;;;;;;;;;;;5.17;76.18;98739.66;1756171;81;20224;-69
2022/04/05 03:12:42;;;;;;;;;;;;;;;5.15;76.21;98742.95;1755981;81;21838;-69
2022/04/05 03:15:08;;;;;;;;;;;;;;;5.15;76.25;98742.95;1756148;81;20457;-69
2022/04/05 03:17:34;;;;;;;;;;;;;;;5.16;76.29;98749.89;1756146;81;20185;-69
2022/04/05 03:20:01;;;;;;;;;;;;;;;5.15;76.32;98756.17;1755787;81;20166;-68
2022/04/05 03:22:27;;;;;;;;;;;;;;;5.14;76.42;98751.87;1756080;81;20170;-69
2022/04/05 03:24:53;;;;;;;;;;;;;;;5.12;76.50;98750.41;1755962;81;21168;-68
2022/04/05 03:27:19;;;;;;;;;;;;;;;5.08;76.55;98755.22;1756047;81;20895;-69
2022/04/05 03:29:44;;;;;;;;;;;;;;;5.03;76.60;98765.52;1755997;81;20200;-69
2022/04/05 03:32:11;;;;;;;;;;;;;;;4.93;76.72;98766.20;1755946;81;20164;-69
2022/04/05 03:34:38;;;;;;;;;;;;;;;4.86;76.82;98754.69;1756121;81;20190;-69
2022/04/05 03:37:04;;;;;;;;;;;;;;;4.80;76.97;98757.54;1756085;81;21051;-69
2022/04/05 03:39:30;;;;;;;;;;;;;;;4.76;77.13;98766.80;1756104;81;20154;-69
2022/04/05 03:41:57;;;;;;;;;;;;;;;4.73;77.25;98761.04;1756150;81;20240;-69
2022/04/05 03:44:23;;;;;;;;;;;;;;;4.69;77.35;98771.12;1755880;81;20552;-69
2022/04/05 03:46:49;;;;;;;;;;;;;;;4.67;77.44;98772.30;1754908;80;20165;-69
2022/04/05 03:49:15;;;;;;;;;;;;;;;4.65;77.60;98759.75;1754804;81;21082;-69
2022/04/05 03:51:41;;;;;;;;;;;;;;;4.65;77.75;98776.91;1754769;81;20244;-69
2022/04/05 03:54:06;;;;;;;;;;;;;;;4.64;77.85;98780.57;1757195;81;20373;-69
2022/04/05 03:56:32;;;;;;;;;;;;;;;4.62;77.98;98779.90;1759054;81;20228;-69
2022/04/05 03:58:58;;;;;;;;;;;;;;;4.61;78.07;98778.28;1758922;81;20268;-69
2022/04/05 04:01:24;;;;;;;;;;;;;;;4.57;78.16;98783.08;1758986;81;21151;-69
2022/04/05 04:03:50;;;;;;;;;;;;;;;4.56;78.23;98780.59;1758912;81;20272;-69
2022/04/05 04:06:15;;;;;;;;;;;;;;;4.54;78.35;98783.39;1758948;81;20212;-69
2022/04/05 04:08:41;;;;;;;;;;;;;;;4.52;78.42;98777.48;1759048;81;20671;-69
2022/04/05 04:11:07;;;;;;;;;;;;;;;4.51;78.53;98783.25;1759258;81;20197;-69
2022/04/05 04:13:33;;;;;;;;;;;;;;;4.52;78.63;98778.80;1758856;81;21128;-69
2022/04/05 04:15:59;;;;;;;;;;;;;;;4.50;78.71;98788.19;1758866;81;20807;-69
2022/04/05 04:18:25;;;;;;;;;;;;;;;4.48;78.80;98784.91;1758961;81;20240;-69
2022/04/05 04:20:51;;;;;;;;;;;;;;;4.47;78.89;98798.27;1758740;81;20169;-69
2022/04/05 04:23:17;;;;;;;;;;;;;;;4.45;78.94;98795.81;1758916;81;20209;-69
2022/04/05 04:25:42;;;;;;;;;;;;;;;4.44;78.97;98791.52;1758734;81;21102;-69
2022/04/05 04:28:09;;;;;;;;;;;;;;;4.44;79.03;98805.21;1758859;81;20216;-69
2022/04/05 04:30:36;;;;;;;;;;;;;;;4.43;79.13;98791.19;1758700;81;20457;-69
2022/04/05 04:33:02;;;;;;;;;;;;;;;4.42;79.13;98779.00;1759130;81;20462;-69
2022/04/05 04:35:28;;;;;;;;;;;;;;;4.40;79.12;98795.48;1750095;81;20161;-69
2022/04/05 04:37:54;;;;;;;;;;;;;;;4.37;79.11;98792.37;1758873;81;21124;-69
2022/04/05 04:40:20;;;;;;;;;;;;;;;4.32;79.08;98792.90;1758962;81;20150;-69
2022/04/05 04:42:46;;;;;;;;;;;;;;;4.29;79.06;98798.48;1758794;81;20217;-69
2022/04/05 04:45:12;;;;;;;;;;;;;;;4.26;78.98;98804.59;1758980;81;20697;-69
2022/04/05 04:47:38;;;;;;;;;;;;;;;4.22;78.96;98813.34;1758733;81;20228;-69
2022/04/05 04:50:05;;;;;;;;;;;;;;;4.21;78.92;98809.08;1759133;81;21089;-69
2022/04/05 04:52:31;;;;;;;;;;;;;;;4.21;78.87;98817.00;1758799;81;20494;-69
2022/04/05 04:54:57;;;;;;;;;;;;;;;4.21;78.79;98814.85;1761168;81;20170;-69
2022/04/05 04:57:23;;;;;;;;;;;;;;;4.21;78.72;98820.95;1762247;81;20220;-68
2022/04/05 04:59:50;;;;;;;;;;;;;;;4.22;78.65;98828.38;1762207;81;20178;-69
2022/04/05 05:02:15;;;;;;;;;;;;;;;4.21;78.60;98826.23;1762165;81;21074;-69
2022/04/05 05:04:41;;;;;;;;;;;;;;;4.22;78.56;98829.17;1762204;81;21190;-69
2022/04/05 05:07:07;;;;;;;;;;;;;;;4.21;78.50;98842.06;1762262;81;20247;-69
2022/04/05 05:09:33;;;;;;;;;;;;;;;4.21;78.47;98843.38;1762040;81;20216;-68
2022/04/05 05:12:00;;;;;;;;;;;;;;;4.20;78.43;98846.17;1762290;81;20139;-68
2022/04/05 05:14:30;;;;;;;;;;;;;;;4.19;78.42;98850.63;1762180;81;21139;-69
2022/04/05 05:16:56;;;;;;;;;;;;;;;4.20;78.40;98861.52;1762158;81;20262;-68
2022/04/05 05:19:21;;;;;;;;;;;;;;;4.19;78.41;98862.49;1762207;81;20251;-69
2022/04/05 05:21:48;;;;;;;;;;;;;;;4.18;78.40;98860.87;1761884;81;20220;-69
2022/04/05 05:24:13;;;;;;;;;;;;;;;4.18;78.42;98863.50;1762237;81;20188;-69
2022/04/05 05:26:39;;;;;;;;;;;;;;;4.19;78.42;98862.98;1761940;81;21068;-69
2022/04/05 05:29:05;;;;;;;;;;;;;;;4.20;78.42;98862.83;1762339;81;20244;-69
2022/04/05 05:31:31;;;;;;;;;;;;;;;4.22;78.43;98867.43;1762118;81;20800;-69
2022/04/05 05:33:57;;;;;;;;;;;;;;;4.24;78.43;98870.74;1762197;81;20215;-69
2022/04/05 05:36:22;;;;;;;;;;;;;;;4.28;78.41;98868.10;1762179;81;20157;-69
2022/04/05 05:38:48;;;;;;;;;;;;;;;4.31;78.44;98869.08;1762338;81;21042;-69
2022/04/05 05:41:14;;;;;;;;;;;;;;;4.32;78.44;98873.37;1762210;81;20235;-69
2022/04/05 05:43:41;;;;;;;;;;;;;;;4.39;78.49;98867.76;1762159;81;20208;-69
2022/04/05 05:46:07;;;;;;;;;;;;;;;4.47;78.49;98873.00;1762483;81;20158;-69
2022/04/05 05:48:33;;;;;;;;;;;;;;;4.53;78.51;98871.52;1762301;81;20184;-69
2022/04/05 05:50:59;;;;;;;;;;;;;;;4.54;78.54;98876.61;1762247;81;21082;-69
2022/04/05 05:53:25;;;;;;;;;;;;;;;4.57;78.54;98878.60;1762008;81;20211;-69
2022/04/05 05:55:51;;;;;;;;;;;;;;;4.59;78.56;98884.52;1759193;81;20283;-69
2022/04/05 05:58:17;;;;;;;;;;;;;;;4.61;78.55;98891.80;1759084;81;20169;-69
2022/04/05 06:00:43;;;;;;;;;;;;;;;4.60;78.54;98895.42;1759077;81;20316;-69
2022/04/05 06:03:10;;;;;;;;;;;;;;;4.61;78.56;98901.03;1759223;81;21154;-69
2022/04/05 06:05:36;;;;;;;;;;;;;;;4.63;78.54;98899.86;1758966;81;20166;-69
2022/04/05 06:08:04;;;;;;;;;;;;;;;4.64;78.49;98902.84;1759107;81;20217;-69
2022/04/05 06:10:30;;;;;;;;;;;;;;;4.67;78.50;98904.31;1759046;81;20218;-69
2022/04/05 06:12:56;;;;;;;;;;;;;;;4.61;78.46;98909.75;1759064;81;20209;-69
2022/04/05 06:15:23;;;;;;;;;;;;;;;4.60;78.46;98921.81;1759056;81;21077;-69
2022/04/05 06:17:49;;;;;;;;;;;;;;;4.56;78.44;98911.27;1759204;81;20161;-69
2022/04/05 06:20:16;;;;;;;;;;;;;;;4.53;78.44;98914.58;1759027;81;20271;-69
2022/04/05 06:22:53;;;;;;;;;;;;;;;4.54;78.40;98934.68;1759002;81;20185;-69
2022/04/05 06:25:21;;;;;;;;;;;;;;;4.55;78.36;98926.27;1759109;81;20150;-69
2022/04/05 06:27:47;;;;;;;;;;;;;;;4.56;78.33;98932.38;1758492;81;21131;-69
2022/04/05 06:30:15;;;;;;;;;;;;;;;4.59;78.31;98934.19;1758986;81;20162;-69
2022/04/05 06:32:40;;;;;;;;;;;;;;;4.59;78.27;98941.28;1759002;81;20185;-69
2022/04/05 06:35:07;;;;;;;;;;;;;;;4.63;78.25;98946.56;1758847;81;20603;-69
2022/04/05 06:37:33;;;;;;;;;;;;;;;4.62;78.21;98943.09;1759214;81;20175;-69
2022/04/05 06:39:59;;;;;;;;;;;;;;;4.62;78.19;98944.91;1758800;81;21996;-69
2022/04/05 06:42:25;;;;;;;;;;;;;;;4.57;78.16;98940.64;1758998;81;20186;-69
2022/04/05 06:44:53;;;;;;;;;;;;;;;4.57;78.15;98940.64;1759068;81;20147;-69
2022/04/05 06:47:19;;;;;;;;;;;;;;;4.58;78.15;98952.83;1759060;81;20205;-69
2022/04/05 06:49:45;;;;;;;;;;;;;;;4.56;78.11;98960.09;1758986;81;20190;-69
2022/04/05 06:52:11;;;;;;;;;;;;;;;4.53;78.13;98955.50;1759016;81;21164;-69
2022/04/05 06:54:36;;;;;;;;;;;;;;;4.53;78.12;98944.94;1758709;81;20252;-69
2022/04/05 06:57:03;;;;;;;;;;;;;;;4.52;78.12;98949.05;1758802;81;20188;-69
2022/04/05 06:59:29;;;;;;;;;;;;;;;4.54;78.13;98954.97;1759201;81;20628;-69
2022/04/05 07:01:55;;;;;;;;;;;;;;;4.53;78.12;98951.53;1758681;81;20168;-69
2022/04/05 07:04:21;;;;;;;;;;;;;;;4.59;78.14;98943.92;1758966;81;21151;-69
2022/04/05 07:06:46;;;;;;;;;;;;;;;4.60;78.12;98958.78;1759079;81;20583;-70
2022/04/05 07:09:12;;;;;;;;;;;;;;;4.66;78.11;98953.64;1759042;81;20752;-69
2022/04/05 07:11:38;;;;;;;;;;;;;;;4.78;78.13;98955.45;1758927;81;20227;-69
2022/04/05 07:14:04;;;;;;;;;;;;;;;4.86;78.10;98954.09;1759168;81;20181;-69
2022/04/05 07:16:30;;;;;;;;;;;;;;;4.94;78.07;98956.23;1759200;81;21130;-69
2022/04/05 07:18:56;;;;;;;;;;;;;;;5.11;78.07;98959.63;1758739;81;20209;-69
2022/04/05 07:21:22;;;;;;;;;;;;;;;5.34;78.05;98965.84;1759281;81;20216;-69
2022/04/05 07:23:48;;;;;;;;;;;;;;;5.48;78.00;98971.72;1758840;81;20157;-69
2022/04/05 07:26:14;;;;;;;;;;;;;;;5.51;77.94;98964.77;1759017;81;20220;-69
2022/04/05 07:28:40;;;;;;;;;;;;;;;5.46;77.84;98965.77;1759050;81;21264;-69
2022/04/05 07:31:06;;;;;;;;;;;;;;;5.40;77.81;98963.82;1758924;81;20184;-69
2022/04/05 07:33:31;;;;;;;;;;;;;;;5.39;77.75;98971.41;1759056;81;20176;-69
2022/04/05 07:35:57;;;;;;;;;;;;;;;5.44;77.70;98973.06;1759003;81;20556;-69
2022/04/05 07:38:24;;;;;;;;;;;;;;;5.54;77.64;98973.67;1759506;81;20157;-69
2022/04/05 07:40:52;;;;;;;;;;;;;;;5.53;77.58;98985.23;1758853;81;21130;-69
2022/04/05 07:43:20;;;;;;;;;;;;;;;5.48;77.49;98987.58;1758839;81;20193;-69
2022/04/05 07:45:48;;;;;;;;;;;;;;;5.44;77.43;98988.92;1758912;81;20463;-69
2022/04/05 07:48:13;;;;;;;;;;;;;;;5.39;77.39;99004.45;1726233;81;20172;-69
2022/04/05 07:50:39;;;;;;;;;;;;;;;5.34;77.31;98994.91;1724328;83;20223;-69
2022/04/05 07:53:05;;;;;;;;;;;;;;;5.26;77.28;99004.18;1724158;83;21032;-69
2022/04/05 07:55:31;;;;;;;;;;;;;;;5.28;77.24;99006.14;1726069;83;20183;-70
2022/04/05 07:57:58;;;;;;;;;;;;;;;5.27;77.18;99005.84;1727207;83;20172;-69
2022/04/05 08:00:24;;;;;;;;;;;;;;;5.27;77.16;99006.33;1727377;82;20171;-69
2022/04/05 08:02:50;;;;;;;;;;;;;;;5.27;77.11;99016.41;1727315;83;20191;-69
2022/04/05 08:05:16;;;;;;;;;;;;;;;5.31;77.09;99012.41;1727229;83;21078;-69
2022/04/05 08:07:43;;;;;;;;;;;;;;;5.42;77.06;99016.01;1727342;83;20174;-69
2022/04/05 08:10:09;;;;;;;;;;;;;;;5.44;77.01;99018.00;1727252;83;20196;-69
2022/04/05 08:12:43;;;;;;;;;;;;;;;5.42;76.98;99019.97;1727283;82;20577;-69
2022/04/05 08:15:10;;;;;;;;;;;;;;;5.45;76.95;99026.23;1727446;82;20204;-69
2022/04/05 08:17:36;;;;;;;;;;;;;;;5.46;76.88;99025.74;1727357;82;21803;-69
2022/04/05 08:20:02;;;;;;;;;;;;;;;5.63;76.81;99021.23;1727212;82;20199;-69
2022/04/05 08:22:28;;;;;;;;;;;;;;;6.06;76.79;99022.00;1727272;83;20496;-69
2022/04/05 08:24:54;;;;;;;;;;;;;;;6.41;76.70;99025.41;1727087;83;20780;-69
2022/04/05 08:27:20;;;;;;;;;;;;;;;6.42;76.53;99029.71;1727277;82;20286;-69
2022/04/05 08:29:46;;;;;;;;;;;;;;;6.37;76.42;99032.05;1727312;83;21044;-69
2022/04/05 08:32:11;;;;;;;;;;;;;;;6.39;76.36;99023.45;1727170;83;20235;-69
2022/04/05 08:34:41;;;;;;;;;;;;;;;6.58;76.27;99030.59;1727453;82;20750;-70
2022/04/05 08:37:05;;;;;;;;;;;;;;;6.66;76.04;99026.03;1726920;83;20153;-69
2022/04/05 08:39:31;;;;;;;;;;;;;;;6.67;75.86;99020.23;1727369;83;20156;-69
2022/04/05 08:41:57;;;;;;;;;;;;;;;6.47;75.67;99033.95;1727220;82;21157;-69
2022/04/05 08:44:23;;;;;;;;;;;;;;;6.28;75.53;99038.41;1727245;83;20191;-69
2022/04/05 08:46:48;;;;;;;;;;;;;;;6.18;75.42;99041.80;1727281;82;20206;-69
2022/04/05 08:49:14;;;;;;;;;;;;;;;6.21;75.36;99045.41;1702389;83;20215;-69
2022/04/05 08:51:40;;;;;;;;;;;;;;;6.28;75.30;99039.73;1727434;83;20172;-69
2022/04/05 08:54:06;;;;;;;;;;;;;;;6.67;75.31;99046.73;1727304;82;20731;-69
2022/04/05 08:56:32;;;;;;;;;;;;;;;7.04;75.24;99050.69;1724112;83;20192;-69
2022/04/05 08:58:58;;;;;;;;;;;;;;;7.42;75.09;99045.64;1724103;83;20161;-69
2022/04/05 09:01:29;;;;;;;;;;;;;;;7.63;74.84;99052.06;1724159;83;20223;-69
2022/04/05 09:03:52;;;;;;;;;;;;;;;7.81;74.61;99056.49;1723725;83;20153;-70
2022/04/05 09:06:28;;;;;;;;;;;;;;;7.89;74.39;99056.37;1724395;83;21158;-69
2022/04/05 09:09:11;;;;;;;;;;;;;;;7.73;74.06;99053.43;1721986;83;20472;-70
2022/04/05 09:11:46;;;;;;;;;;;;;;;7.46;73.76;99068.16;1723865;83;20157;-70
2022/04/05 09:14:12;;;;;;;;;;;;;;;7.40;73.55;99072.87;1724227;83;20160;-70
2022/04/05 09:16:38;;;;;;;;;;;;;;;7.32;73.13;99072.94;1724291;83;20165;-69
2022/04/05 09:19:14;;;;;;;;;;;;;;;7.25;72.90;99069.37;1724151;83;21089;-69
2022/04/05 09:21:48;;;;;;;;;;;;;;;7.10;72.63;99079.15;1724241;83;20165;-70
2022/04/05 09:24:14;;;;;;;;;;;;;;;6.89;72.38;99092.26;1722019;83;20161;-69
2022/04/05 09:26:43;;;;;;;;;;;;;;;6.80;72.24;99084.03;1723776;83;20479;-69
2022/04/05 09:29:09;;;;;;;;;;;;;;;6.90;72.16;99080.14;1724344;83;20153;-69
2022/04/05 09:31:47;;;;;;;;;;;;;;;7.15;72.00;99079.41;1723904;83;21090;-69
2022/04/05 09:34:13;;;;;;;;;;;;;;;7.37;71.85;99078.54;1724149;83;20169;-69
2022/04/05 09:36:41;;;;;;;;;;;;;;;7.53;71.38;99086.31;1724138;83;20180;-69
2022/04/05 09:39:25;;;;;;;;;;;;;;;7.75;71.15;99085.07;1724240;83;20467;-69
2022/04/05 09:42:02;;;;;;;;;;;;;;;7.98;70.87;99081.81;1724191;83;20180;-69
2022/04/05 09:44:31;;;;;;;;;;;;;;;8.03;70.26;99074.92;1724262;83;21643;-69
2022/04/05 09:47:11;;;;;;;;;;;;;;;8.21;69.93;99080.34;1723759;83;20197;-69
2022/04/05 09:49:41;;;;;;;;;;;;;;;8.60;69.69;99083.95;1724102;83;20216;-69
2022/04/05 09:52:30;;;;;;;;;;;;;;;8.70;69.04;99079.14;1723377;83;20635;-70
2022/04/05 09:55:09;;;;;;;;;;;;;;;8.84;68.69;99088.88;1724441;82;20258;-70
2022/04/05 09:57:36;;;;;;;;;;;;;;;8.77;68.14;99085.34;1705053;83;21210;-70
2022/04/05 10:00:16;;;;;;;;;;;;;;;8.65;67.80;99090.36;1727437;82;20160;-70
2022/04/05 10:03:02;;;;;;;;;;;;;;;8.70;67.43;99093.75;1727120;82;20165;-70
2022/04/05 10:05:30;;;;;;;;;;;;;;;9.05;67.28;99092.84;1722288;83;20448;-70
2022/04/05 10:07:56;;;;;;;;;;;;;;;9.50;67.03;99092.36;1727148;83;20172;-70
2022/04/05 10:10:22;;;;;;;;;;;;;;;9.68;66.65;99083.05;1727253;82;21150;-70
2022/04/05 10:12:47;;;;;;;;;;;;;;;9.57;66.32;99108.91;1727205;82;20214;-70
2022/04/05 10:15:13;;;;;;;;;;;;;;;9.58;65.93;99096.72;1727376;82;20198;-70
2022/04/05 10:17:43;;;;;;;;;;;;;;;9.70;65.61;99086.35;1727578;82;20142;-70
2022/04/05 10:20:08;;;;;;;;;;;;;;;9.81;65.41;99082.64;1726878;82;20195;-70
2022/04/05 10:22:34;;;;;;;;;;;;;;;9.95;65.10;99079.02;1727506;82;21843;-70
2022/04/05 10:25:00;;;;;;;;;;;;;;;10.12;64.31;99072.00;1727167;82;20237;-70
2022/04/05 10:27:26;;;;;;;;;;;;;;;9.98;63.41;99085.28;1727074;83;20254;-70
2022/04/05 10:30:11;;;;;;;;;;;;;;;9.96;63.11;99083.80;1727370;83;20227;-70
2022/04/05 10:32:51;;;;;;;;;;;;;;;9.84;62.61;99104.05;1727244;82;20185;-70
2022/04/05 10:35:21;;;;;;;;;;;;;;;9.90;62.27;99088.60;1727521;82;21306;-70
2022/04/05 10:37:46;;;;;;;;;;;;;;;9.65;61.77;99103.41;1702802;83;20184;-70
2022/04/05 10:40:14;;;;;;;;;;;;;;;9.28;61.65;99100.11;1702421;83;20179;-70
2022/04/05 10:42:48;;;;;;;;;;;;;;;9.08;61.60;99099.11;1727553;82;20397;-70
2022/04/05 10:45:19;;;;;;;;;;;;;;;9.28;61.73;99103.27;1727422;82;20416;-70
2022/04/05 10:48:05;;;;;;;;;;;;;;;9.65;61.69;99116.72;1727515;83;21036;-70
2022/04/05 10:50:31;;;;;;;;;;;;;;;9.86;61.59;99113.97;1722017;83;20152;-70
2022/04/05 10:53:17;;;;;;;;;;;;;;;9.86;61.03;99104.66;1727373;82;20471;-70
2022/04/05 10:56:08;;;;;;;;;;;;;;;9.67;60.58;99112.86;1725575;82;20189;-70
2022/04/05 10:58:36;;;;;;;;;;;;;;;9.51;60.18;99121.96;1723953;83;20160;-70
2022/04/05 11:01:20;;;;;;;;;;;;;;;9.57;59.69;99128.87;1697722;83;21200;-70
2022/04/05 11:04:14;;;;;;;;;;;;;;;9.50;59.49;99121.64;1724265;83;20268;-70
2022/04/05 11:06:56;;;;;;;;;;;;;;;9.19;59.04;99129.17;1724178;83;20173;-70
2022/04/05 11:09:32;;;;;;;;;;;;;;;9.27;59.09;99134.38;1708052;83;20134;-70
2022/04/05 11:12:02;;;;;;;;;;;;;;;9.67;59.09;99130.17;1724178;83;20453;-70
2022/04/05 11:14:45;;;;;;;;;;;;;;;10.02;58.92;99118.99;1724498;83;20939;-71
2022/04/05 11:17:13;;;;;;;;;;;;;;;10.07;58.40;99123.20;1724159;83;20185;-70
2022/04/05 11:19:42;;;;;;;;;;;;;;;9.92;57.48;99128.66;1697729;83;20141;-70
2022/04/05 11:22:23;;;;;;;;;;;;;;;9.92;56.81;99126.52;1724169;83;20168;-70
2022/04/05 11:24:57;;;;;;;;;;;;;;;10.12;56.46;99119.45;1720549;83;20164;-70
2022/04/05 11:27:45;;;;;;;;;;;;;;;10.37;55.78;99115.78;1724042;83;21895;-70
2022/04/05 11:30:27;;;;;;;;;;;;;;;10.64;55.05;99120.67;1723507;83;20141;-71
2022/04/05 11:33:16;;;;;;;;;;;;;;;10.65;54.18;99115.15;1723916;83;20229;-70
2022/04/05 11:35:43;;;;;;;;;;;;;;;10.79;53.68;99109.33;1724403;83;20280;-71
2022/04/05 11:38:19;;;;;;;;;;;;;;;10.91;53.18;99115.69;1724051;83;20168;-70
2022/04/05 11:40:46;;;;;;;;;;;;;;;10.72;52.56;99114.66;1717351;83;20653;-70
2022/04/05 11:43:31;;;;;;;;;;;;;;;10.57;52.09;99122.50;1724300;83;20515;-71
2022/04/05 11:45:56;;;;;;;;;;;;;;;10.32;51.85;99128.37;1723323;81;20226;-71
2022/04/05 11:48:23;;;;;;;;;;;;;;;10.13;51.75;99134.42;1757598;80;20135;-70
2022/04/05 11:50:49;;;;;;;;;;;;;;;9.93;51.59;99139.63;1759119;81;20163;-70
2022/04/05 11:53:23;;;;;;;;;;;;;;;9.90;51.60;99144.52;1758938;81;21079;-70
2022/04/05 11:56:20;;;;;;;;;;;;;;;9.83;51.50;99144.99;1755146;81;20475;-71
2022/04/05 11:58:48;;;;;;;;;;;;;;;9.69;51.49;99141.94;1690554;85;20164;-71
2022/04/05 12:01:17;;;;;;;;;;;;;;;9.64;51.42;99145.70;1746239;81;20130;-71
2022/04/05 12:03:49;;;;;;;;;;;;;;;9.81;51.48;99145.20;1761981;81;20430;-70
2022/04/05 12:06:20;;;;;;;;;;;;;;;10.05;51.43;99135.91;1761667;81;22378;-70
2022/04/05 12:08:47;;;;;;;;;;;;;;;10.16;51.27;99134.05;1761143;81;20157;-70
2022/04/05 12:11:15;;;;;;;;;;;;;;;10.15;51.07;99139.06;1762185;81;20178;-70
2022/04/05 12:13:43;;;;;;;;;;;;;;;10.08;50.87;99144.00;1762197;81;20450;-70
2022/04/05 12:16:08;;;;;;;;;;;;;;;9.91;50.56;99148.34;1753146;81;20153;-70
2022/04/05 12:18:34;;;;;;;;;;;;;;;9.72;50.36;99156.18;1762276;81;21788;-71
2022/04/05 12:21:06;;;;;;;;;;;;;;;9.61;50.30;99155.38;1762140;81;20211;-70
2022/04/05 12:23:41;;;;;;;;;;;;;;;9.59;50.27;99154.77;1762197;81;20430;-70
2022/04/05 12:26:21;;;;;;;;;;;;;;;9.56;50.20;99168.47;1761919;81;20469;-70
2022/04/05 12:28:54;;;;;;;;;;;;;;;9.61;50.09;99162.03;1761979;81;20189;-70
2022/04/05 12:31:23;;;;;;;;;;;;;;;9.73;49.98;99157.83;1762122;81;21232;-70
2022/04/05 12:34:09;;;;;;;;;;;;;;;9.89;49.63;99166.33;1761444;81;20158;-70
2022/04/05 12:36:36;;;;;;;;;;;;;;;10.01;49.44;99170.61;1762059;81;20194;-71
2022/04/05 12:39:07;;;;;;;;;;;;;;;10.11;49.28;99177.73;1761791;81;20158;-70
2022/04/05 12:41:38;;;;;;;;;;;;;;;10.21;49.10;99166.23;1760813;81;20181;-70
2022/04/05 12:44:12;;;;;;;;;;;;;;;10.22;48.81;99160.40;1762343;81;21074;-70
2022/04/05 12:46:49;;;;;;;;;;;;;;;10.14;48.55;99167.18;1762249;81;20162;-70
2022/04/05 12:49:24;;;;;;;;;;;;;;;10.02;48.16;99165.60;1762350;81;20442;-71
2022/04/05 12:51:51;;;;;;;;;;;;;;;9.91;47.87;99162.16;1762141;81;20174;-70
2022/04/05 12:54:32;;;;;;;;;;;;;;;9.86;47.77;99152.59;1762295;81;20173;-70
2022/04/05 12:57:15;;;;;;;;;;;;;;;9.87;47.71;99161.72;1737521;81;21150;-70
2022/04/05 12:59:42;;;;;;;;;;;;;;;9.83;47.54;99163.63;1762576;81;20186;-70
2022/04/05 13:02:17;;;;;;;;;;;;;;;9.89;47.52;99165.00;1762833;81;20178;-70